RELEVES METEO NEUVILLE
Donnes mto: Actuelle jeudi, 13/05/2021 17:55
Date Horaire Temp. E. Hum. E. P.atmo. Pluie Vent Direction Direction P. de rose Temp au vent Rafales
13/05/2021 17:55 15,1 C 53 % 1005,7 hPa 0,0 mm 0,3 km/h (0 Bft) O-SO 242 5,6 C 15,1 C 6,4 km/h (2 Bft)
13/05/2021 17:50 15,2 C 54 % 1005,7 hPa 0,0 mm 0,3 km/h (0 Bft) SO 236 6,0 C 15,2 C 6,4 km/h (2 Bft)
13/05/2021 17:45 15,2 C 53 % 1005,7 hPa 0,0 mm 0,5 km/h (0 Bft) SO 235 5,7 C 15,2 C 4,8 km/h (1 Bft)
13/05/2021 17:40 15,3 C 52 % 1005,7 hPa 0,0 mm 1,3 km/h (1 Bft) O-SO 239 5,5 C 15,3 C 9,7 km/h (2 Bft)
13/05/2021 17:35 15,4 C 51 % 1005,7 hPa 0,0 mm 0,6 km/h (0 Bft) S 182 5,3 C 15,4 C 6,4 km/h (2 Bft)
13/05/2021 17:30 15,8 C 52 % 1005,7 hPa 0,0 mm 0,2 km/h (0 Bft) O-SO 241 6,0 C 15,8 C 6,4 km/h (2 Bft)
13/05/2021 17:25 15,3 C 50 % 1005,8 hPa 0,0 mm 0,9 km/h (0 Bft) SO 221 4,9 C 15,3 C 8,0 km/h (2 Bft)
13/05/2021 17:20 15,6 C 54 % 1005,8 hPa 0,0 mm 0,3 km/h (0 Bft) S 188 6,3 C 15,6 C 3,2 km/h (1 Bft)
13/05/2021 17:15 15,7 C 52 % 1005,7 hPa 0,0 mm 1,1 km/h (1 Bft) S 171 5,9 C 15,7 C 9,7 km/h (2 Bft)
13/05/2021 17:10 15,9 C 53 % 1005,8 hPa 0,0 mm 0,9 km/h (0 Bft) S-SO 211 6,3 C 15,9 C 8,0 km/h (2 Bft)
13/05/2021 17:05 15,3 C 53 % 1005,8 hPa 0,0 mm 0,0 km/h (0 Bft) S-SO 194 5,8 C 15,3 C 1,6 km/h (1 Bft)
13/05/2021 17:00 14,9 C 55 % 1005,9 hPa 0,0 mm 0,4 km/h (0 Bft) S-SO 194 5,9 C 14,9 C 6,4 km/h (2 Bft)
13/05/2021 16:55 14,7 C 56 % 1006,0 hPa 0,0 mm 0,0 km/h (0 Bft) O-SO 239 6,0 C 14,7 C 1,6 km/h (1 Bft)
13/05/2021 16:50 14,8 C 56 % 1005,9 hPa 0,0 mm 0,0 km/h (0 Bft) O-SO 258 6,1 C 14,8 C 1,6 km/h (1 Bft)
13/05/2021 16:45 14,9 C 54 % 1005,9 hPa 0,0 mm 0,0 km/h (0 Bft) O-SO 258 5,7 C 14,9 C 0,0 km/h (0 Bft)
13/05/2021 16:40 15,2 C 53 % 1006,0 hPa 0,0 mm 0,3 km/h (0 Bft) O-SO 258 5,7 C 15,2 C 4,8 km/h (1 Bft)
13/05/2021 16:35 15,9 C 54 % 1006,0 hPa 0,0 mm 1,4 km/h (1 Bft) N-NO 331 6,6 C 15,9 C 8,0 km/h (2 Bft)
13/05/2021 16:30 15,4 C 57 % 1006,0 hPa 0,0 mm 0,3 km/h (0 Bft) S 186 6,9 C 15,4 C 6,4 km/h (2 Bft)
13/05/2021 16:25 14,7 C 57 % 1006,1 hPa 0,0 mm 0,9 km/h (0 Bft) S 186 6,3 C 14,7 C 8,0 km/h (2 Bft)
13/05/2021 16:20 14,6 C 58 % 1006,1 hPa 0,0 mm 0,2 km/h (0 Bft) O-SO 254 6,4 C 14,6 C 4,8 km/h (1 Bft)
13/05/2021 16:15 14,3 C 60 % 1006,2 hPa 0,0 mm 0,1 km/h (0 Bft) SO 231 6,6 C 14,3 C 1,6 km/h (1 Bft)
_ Min-Heure 01:35 17:25 06:40 - 00:00 - - 17:25 01:35 00:00
Minimum _ 9,3 C 50 % 1005,3 hPa - 0,0 km/h (0 Bft) - - 4,9 C 9,3 C 0,0 km/h (0 Bft)
_ Max-Heure 14:45 09:20 00:00 08:35 15:30 - - 09:20 16:35 14:40
Maximum _ 15,9 C 92 % 1008,0 hPa 0,2 mm 5,6 km/h
S-SO (1 Bft)
- - 9,8 C 15,9 C 17,7 km/h
S-SE (3 Bft)
Moyenne _ 11,6 C 76 % 1006,3 hPa #0,4 mm 0,6 km/h (0 Bft) S - 7,4 C 11,6 C 5,2 km/h (1 Bft)
NEUVILLE ST REMY